sensor_id;sensor_type;location;lat;lon;timestamp;P1;durP1;ratioP1;P2;durP2;ratioP2
56999;SDS011;42891;50.006;21.964;2022-10-22T00:02:00;9.13;;;4.47;;
56999;SDS011;42891;50.006;21.964;2022-10-22T00:06:00;6.83;;;4.37;;
56999;SDS011;42891;50.006;21.964;2022-10-22T00:10:00;9.95;;;3.83;;
56999;SDS011;42891;50.006;21.964;2022-10-22T00:14:02;7.07;;;4.13;;
56999;SDS011;42891;50.006;21.964;2022-10-22T00:18:03;8.45;;;4.35;;
56999;SDS011;42891;50.006;21.964;2022-10-22T00:22:03;8.75;;;4.15;;
56999;SDS011;42891;50.006;21.964;2022-10-22T00:26:06;10.23;;;4.10;;
56999;SDS011;42891;50.006;21.964;2022-10-22T00:30:07;7.47;;;4.15;;
56999;SDS011;42891;50.006;21.964;2022-10-22T00:34:07;5.10;;;3.47;;
56999;SDS011;42891;50.006;21.964;2022-10-22T00:38:08;9.43;;;4.10;;
56999;SDS011;42891;50.006;21.964;2022-10-22T00:42:16;4.85;;;3.90;;
56999;SDS011;42891;50.006;21.964;2022-10-22T00:46:19;6.43;;;3.58;;
56999;SDS011;42891;50.006;21.964;2022-10-22T00:50:25;5.60;;;3.60;;
56999;SDS011;42891;50.006;21.964;2022-10-22T00:54:33;6.28;;;3.90;;
56999;SDS011;42891;50.006;21.964;2022-10-22T00:58:36;5.20;;;3.58;;
56999;SDS011;42891;50.006;21.964;2022-10-22T01:02:40;10.23;;;3.97;;
56999;SDS011;42891;50.006;21.964;2022-10-22T01:06:40;5.30;;;3.70;;
56999;SDS011;42891;50.006;21.964;2022-10-22T01:10:56;8.32;;;3.92;;
56999;SDS011;42891;50.006;21.964;2022-10-22T01:15:06;7.53;;;4.15;;
56999;SDS011;42891;50.006;21.964;2022-10-22T01:32:01;10.55;;;4.20;;
56999;SDS011;42891;50.006;21.964;2022-10-22T01:36:06;7.07;;;3.88;;
56999;SDS011;42891;50.006;21.964;2022-10-22T01:40:07;7.30;;;4.63;;
56999;SDS011;42891;50.006;21.964;2022-10-22T01:44:21;7.28;;;4.20;;
56999;SDS011;42891;50.006;21.964;2022-10-22T01:48:34;6.80;;;4.65;;
56999;SDS011;42891;50.006;21.964;2022-10-22T02:13:46;7.15;;;4.57;;
56999;SDS011;42891;50.006;21.964;2022-10-22T02:17:50;6.30;;;4.18;;
56999;SDS011;42891;50.006;21.964;2022-10-22T02:21:52;9.73;;;4.68;;
56999;SDS011;42891;50.006;21.964;2022-10-22T02:26:08;7.88;;;4.50;;
56999;SDS011;42891;50.006;21.964;2022-10-22T02:30:18;6.50;;;4.03;;
56999;SDS011;42891;50.006;21.964;2022-10-22T02:34:20;11.50;;;4.03;;
56999;SDS011;42891;50.006;21.964;2022-10-22T02:38:23;7.03;;;4.45;;
56999;SDS011;42891;50.006;21.964;2022-10-22T02:42:26;6.32;;;4.18;;
56999;SDS011;42891;50.006;21.964;2022-10-22T02:46:27;8.57;;;4.25;;
56999;SDS011;42891;50.006;21.964;2022-10-22T02:50:28;7.15;;;4.40;;
56999;SDS011;42891;50.006;21.964;2022-10-22T02:54:28;10.90;;;4.88;;
56999;SDS011;42891;50.006;21.964;2022-10-22T02:58:28;6.37;;;4.40;;
56999;SDS011;42891;50.006;21.964;2022-10-22T03:02:28;7.77;;;4.23;;
56999;SDS011;42891;50.006;21.964;2022-10-22T03:06:29;8.00;;;3.93;;
56999;SDS011;42891;50.006;21.964;2022-10-22T03:10:30;7.13;;;4.50;;
56999;SDS011;42891;50.006;21.964;2022-10-22T03:14:30;7.07;;;4.63;;
56999;SDS011;42891;50.006;21.964;2022-10-22T03:18:30;9.23;;;3.97;;
56999;SDS011;42891;50.006;21.964;2022-10-22T03:22:31;8.38;;;4.47;;
56999;SDS011;42891;50.006;21.964;2022-10-22T03:26:33;7.80;;;4.30;;
56999;SDS011;42891;50.006;21.964;2022-10-22T03:30:34;9.00;;;5.15;;
56999;SDS011;42891;50.006;21.964;2022-10-22T03:34:34;9.57;;;5.27;;
56999;SDS011;42891;50.006;21.964;2022-10-22T03:38:36;9.30;;;4.60;;
56999;SDS011;42891;50.006;21.964;2022-10-22T03:42:38;6.75;;;4.70;;
56999;SDS011;42891;50.006;21.964;2022-10-22T03:46:39;7.07;;;4.32;;
56999;SDS011;42891;50.006;21.964;2022-10-22T03:50:39;7.37;;;5.03;;
56999;SDS011;42891;50.006;21.964;2022-10-22T03:54:39;10.20;;;4.70;;
56999;SDS011;42891;50.006;21.964;2022-10-22T03:58:41;6.57;;;4.60;;
56999;SDS011;42891;50.006;21.964;2022-10-22T04:02:41;7.00;;;4.70;;
56999;SDS011;42891;50.006;21.964;2022-10-22T04:06:41;8.70;;;4.43;;
56999;SDS011;42891;50.006;21.964;2022-10-22T04:10:42;8.80;;;4.60;;
56999;SDS011;42891;50.006;21.964;2022-10-22T04:14:50;8.60;;;4.90;;
56999;SDS011;42891;50.006;21.964;2022-10-22T04:18:50;8.77;;;5.00;;
56999;SDS011;42891;50.006;21.964;2022-10-22T04:22:50;9.43;;;5.20;;
56999;SDS011;42891;50.006;21.964;2022-10-22T04:26:52;12.18;;;5.25;;
56999;SDS011;42891;50.006;21.964;2022-10-22T04:30:53;8.20;;;4.90;;
56999;SDS011;42891;50.006;21.964;2022-10-22T04:34:54;8.70;;;5.00;;
56999;SDS011;42891;50.006;21.964;2022-10-22T04:38:55;7.90;;;5.00;;
56999;SDS011;42891;50.006;21.964;2022-10-22T04:42:59;8.17;;;4.93;;
56999;SDS011;42891;50.006;21.964;2022-10-22T04:46:59;11.97;;;5.20;;
56999;SDS011;42891;50.006;21.964;2022-10-22T04:50:59;7.57;;;4.97;;
56999;SDS011;42891;50.006;21.964;2022-10-22T04:55:00;6.95;;;4.88;;
56999;SDS011;42891;50.006;21.964;2022-10-22T04:59:01;8.43;;;5.87;;
56999;SDS011;42891;50.006;21.964;2022-10-22T05:03:04;10.43;;;5.45;;
56999;SDS011;42891;50.006;21.964;2022-10-22T05:07:04;13.53;;;5.33;;
56999;SDS011;42891;50.006;21.964;2022-10-22T05:11:11;11.73;;;5.80;;
56999;SDS011;42891;50.006;21.964;2022-10-22T05:15:16;11.60;;;5.43;;
56999;SDS011;42891;50.006;21.964;2022-10-22T05:19:18;11.23;;;5.22;;
56999;SDS011;42891;50.006;21.964;2022-10-22T05:23:26;11.93;;;5.43;;
56999;SDS011;42891;50.006;21.964;2022-10-22T05:27:27;7.20;;;5.40;;
56999;SDS011;42891;50.006;21.964;2022-10-22T05:31:27;8.67;;;5.80;;
56999;SDS011;42891;50.006;21.964;2022-10-22T05:35:27;9.13;;;5.68;;
56999;SDS011;42891;50.006;21.964;2022-10-22T05:39:28;7.93;;;5.37;;
56999;SDS011;42891;50.006;21.964;2022-10-22T05:43:28;11.57;;;6.00;;
56999;SDS011;42891;50.006;21.964;2022-10-22T05:47:29;10.32;;;5.03;;
56999;SDS011;42891;50.006;21.964;2022-10-22T05:51:30;9.63;;;5.50;;
56999;SDS011;42891;50.006;21.964;2022-10-22T05:55:35;10.00;;;6.18;;
56999;SDS011;42891;50.006;21.964;2022-10-22T05:59:37;7.28;;;5.28;;
56999;SDS011;42891;50.006;21.964;2022-10-22T06:03:38;10.60;;;5.70;;
56999;SDS011;42891;50.006;21.964;2022-10-22T06:07:38;9.77;;;6.38;;
56999;SDS011;42891;50.006;21.964;2022-10-22T06:11:38;13.30;;;6.27;;
56999;SDS011;42891;50.006;21.964;2022-10-22T06:15:38;10.55;;;5.78;;
56999;SDS011;42891;50.006;21.964;2022-10-22T06:19:39;9.00;;;5.90;;
56999;SDS011;42891;50.006;21.964;2022-10-22T06:23:39;9.80;;;6.07;;
56999;SDS011;42891;50.006;21.964;2022-10-22T06:27:40;10.13;;;6.35;;
56999;SDS011;42891;50.006;21.964;2022-10-22T06:31:41;15.20;;;6.30;;
56999;SDS011;42891;50.006;21.964;2022-10-22T06:35:41;14.02;;;6.55;;
56999;SDS011;42891;50.006;21.964;2022-10-22T06:39:41;12.93;;;6.63;;
56999;SDS011;42891;50.006;21.964;2022-10-22T06:43:42;12.23;;;6.45;;
56999;SDS011;42891;50.006;21.964;2022-10-22T06:47:44;12.98;;;6.75;;
56999;SDS011;42891;50.006;21.964;2022-10-22T06:51:48;14.07;;;6.75;;
56999;SDS011;42891;50.006;21.964;2022-10-22T06:55:50;12.10;;;6.93;;
56999;SDS011;42891;50.006;21.964;2022-10-22T06:59:50;14.85;;;7.32;;
56999;SDS011;42891;50.006;21.964;2022-10-22T07:03:50;12.67;;;7.07;;
56999;SDS011;42891;50.006;21.964;2022-10-22T07:07:51;11.43;;;6.95;;
56999;SDS011;42891;50.006;21.964;2022-10-22T07:11:51;11.23;;;6.53;;
56999;SDS011;42891;50.006;21.964;2022-10-22T07:15:52;11.77;;;6.87;;
56999;SDS011;42891;50.006;21.964;2022-10-22T07:19:53;56.65;;;28.88;;
56999;SDS011;42891;50.006;21.964;2022-10-22T07:23:54;28.57;;;15.40;;
56999;SDS011;42891;50.006;21.964;2022-10-22T07:27:54;65.43;;;39.45;;
56999;SDS011;42891;50.006;21.964;2022-10-22T07:31:54;32.97;;;18.60;;
56999;SDS011;42891;50.006;21.964;2022-10-22T07:35:58;27.47;;;16.77;;
56999;SDS011;42891;50.006;21.964;2022-10-22T07:39:59;12.30;;;7.65;;
56999;SDS011;42891;50.006;21.964;2022-10-22T07:43:59;12.43;;;7.57;;
56999;SDS011;42891;50.006;21.964;2022-10-22T07:48:00;11.48;;;6.80;;
56999;SDS011;42891;50.006;21.964;2022-10-22T07:52:01;11.52;;;6.65;;
56999;SDS011;42891;50.006;21.964;2022-10-22T07:56:01;10.27;;;7.28;;
56999;SDS011;42891;50.006;21.964;2022-10-22T08:00:05;14.02;;;8.20;;
56999;SDS011;42891;50.006;21.964;2022-10-22T08:04:07;13.50;;;9.03;;
56999;SDS011;42891;50.006;21.964;2022-10-22T08:08:09;15.50;;;8.02;;
56999;SDS011;42891;50.006;21.964;2022-10-22T08:12:11;12.18;;;7.38;;
56999;SDS011;42891;50.006;21.964;2022-10-22T08:16:11;12.07;;;6.83;;
56999;SDS011;42891;50.006;21.964;2022-10-22T08:20:12;14.00;;;7.13;;
56999;SDS011;42891;50.006;21.964;2022-10-22T08:24:12;14.48;;;7.70;;
56999;SDS011;42891;50.006;21.964;2022-10-22T08:28:13;17.25;;;7.65;;
56999;SDS011;42891;50.006;21.964;2022-10-22T08:32:13;12.20;;;7.47;;
56999;SDS011;42891;50.006;21.964;2022-10-22T08:36:14;13.57;;;7.03;;
56999;SDS011;42891;50.006;21.964;2022-10-22T08:40:22;12.93;;;7.32;;
56999;SDS011;42891;50.006;21.964;2022-10-22T08:48:44;14.70;;;7.50;;
56999;SDS011;42891;50.006;21.964;2022-10-22T08:52:50;12.75;;;7.47;;
56999;SDS011;42891;50.006;21.964;2022-10-22T08:57:11;11.07;;;5.88;;
56999;SDS011;42891;50.006;21.964;2022-10-22T09:01:14;12.60;;;6.68;;
56999;SDS011;42891;50.006;21.964;2022-10-22T09:09:55;12.40;;;6.90;;
56999;SDS011;42891;50.006;21.964;2022-10-22T09:13:58;14.02;;;7.20;;
56999;SDS011;42891;50.006;21.964;2022-10-22T09:18:13;9.05;;;6.70;;
56999;SDS011;42891;50.006;21.964;2022-10-22T09:26:54;15.48;;;8.23;;
56999;SDS011;42891;50.006;21.964;2022-10-22T09:30:55;12.60;;;7.60;;
56999;SDS011;42891;50.006;21.964;2022-10-22T09:35:20;13.03;;;7.07;;
56999;SDS011;42891;50.006;21.964;2022-10-22T09:39:21;14.15;;;7.30;;
56999;SDS011;42891;50.006;21.964;2022-10-22T09:43:31;13.68;;;7.93;;
56999;SDS011;42891;50.006;21.964;2022-10-22T09:55:58;13.52;;;7.72;;
56999;SDS011;42891;50.006;21.964;2022-10-22T10:00:07;16.63;;;7.72;;
56999;SDS011;42891;50.006;21.964;2022-10-22T10:04:12;16.33;;;7.32;;
56999;SDS011;42891;50.006;21.964;2022-10-22T10:16:56;18.97;;;9.13;;
56999;SDS011;42891;50.006;21.964;2022-10-22T10:25:52;13.82;;;6.70;;
56999;SDS011;42891;50.006;21.964;2022-10-22T10:30:14;12.95;;;7.68;;
56999;SDS011;42891;50.006;21.964;2022-10-22T10:38:33;13.02;;;7.65;;
56999;SDS011;42891;50.006;21.964;2022-10-22T10:47:04;12.05;;;7.10;;
56999;SDS011;42891;50.006;21.964;2022-10-22T11:08:38;14.82;;;7.55;;
56999;SDS011;42891;50.006;21.964;2022-10-22T11:12:44;11.43;;;7.07;;
56999;SDS011;42891;50.006;21.964;2022-10-22T11:21:06;14.20;;;7.78;;
56999;SDS011;42891;50.006;21.964;2022-10-22T11:29:14;18.10;;;8.48;;
56999;SDS011;42891;50.006;21.964;2022-10-22T11:33:21;17.75;;;9.40;;
56999;SDS011;42891;50.006;21.964;2022-10-22T11:37:27;15.43;;;7.82;;
56999;SDS011;42891;50.006;21.964;2022-10-22T11:41:34;11.77;;;7.80;;
56999;SDS011;42891;50.006;21.964;2022-10-22T11:45:36;14.23;;;8.52;;
56999;SDS011;42891;50.006;21.964;2022-10-22T11:49:42;15.88;;;8.52;;
56999;SDS011;42891;50.006;21.964;2022-10-22T11:53:45;13.60;;;8.10;;
56999;SDS011;42891;50.006;21.964;2022-10-22T11:57:55;14.35;;;8.63;;
56999;SDS011;42891;50.006;21.964;2022-10-22T12:01:59;14.32;;;8.25;;
56999;SDS011;42891;50.006;21.964;2022-10-22T12:10:15;19.85;;;9.63;;
56999;SDS011;42891;50.006;21.964;2022-10-22T12:14:22;20.15;;;10.55;;
56999;SDS011;42891;50.006;21.964;2022-10-22T12:18:38;18.65;;;10.07;;
56999;SDS011;42891;50.006;21.964;2022-10-22T12:22:40;19.50;;;10.35;;
56999;SDS011;42891;50.006;21.964;2022-10-22T12:26:41;20.00;;;10.57;;
56999;SDS011;42891;50.006;21.964;2022-10-22T12:30:41;18.47;;;10.87;;
56999;SDS011;42891;50.006;21.964;2022-10-22T12:34:48;25.27;;;15.00;;
56999;SDS011;42891;50.006;21.964;2022-10-22T12:38:50;24.65;;;14.65;;
56999;SDS011;42891;50.006;21.964;2022-10-22T12:42:51;25.13;;;12.80;;
56999;SDS011;42891;50.006;21.964;2022-10-22T12:46:54;22.65;;;12.68;;
56999;SDS011;42891;50.006;21.964;2022-10-22T12:50:55;23.92;;;14.07;;
56999;SDS011;42891;50.006;21.964;2022-10-22T12:54:58;30.27;;;16.77;;
56999;SDS011;42891;50.006;21.964;2022-10-22T13:03:24;32.70;;;19.05;;
56999;SDS011;42891;50.006;21.964;2022-10-22T13:07:36;31.17;;;17.90;;
56999;SDS011;42891;50.006;21.964;2022-10-22T13:11:38;37.75;;;19.00;;
56999;SDS011;42891;50.006;21.964;2022-10-22T13:15:40;33.38;;;17.92;;
56999;SDS011;42891;50.006;21.964;2022-10-22T13:23:50;40.95;;;20.55;;
56999;SDS011;42891;50.006;21.964;2022-10-22T13:27:53;41.70;;;21.45;;
56999;SDS011;42891;50.006;21.964;2022-10-22T13:31:56;38.40;;;21.42;;
56999;SDS011;42891;50.006;21.964;2022-10-22T13:35:57;47.28;;;25.02;;
56999;SDS011;42891;50.006;21.964;2022-10-22T13:39:57;58.55;;;32.00;;
56999;SDS011;42891;50.006;21.964;2022-10-22T13:43:57;48.23;;;24.03;;
56999;SDS011;42891;50.006;21.964;2022-10-22T13:47:58;35.58;;;20.13;;
56999;SDS011;42891;50.006;21.964;2022-10-22T13:51:58;39.67;;;20.77;;
56999;SDS011;42891;50.006;21.964;2022-10-22T13:55:59;43.15;;;23.83;;
56999;SDS011;42891;50.006;21.964;2022-10-22T14:00:00;66.60;;;39.60;;
56999;SDS011;42891;50.006;21.964;2022-10-22T14:04:00;105.63;;;51.07;;
56999;SDS011;42891;50.006;21.964;2022-10-22T14:08:04;58.28;;;32.60;;
56999;SDS011;42891;50.006;21.964;2022-10-22T14:12:14;47.45;;;28.63;;
56999;SDS011;42891;50.006;21.964;2022-10-22T14:20:20;94.95;;;53.88;;
56999;SDS011;42891;50.006;21.964;2022-10-22T14:24:22;61.95;;;36.92;;
56999;SDS011;42891;50.006;21.964;2022-10-22T14:28:22;53.07;;;29.57;;
56999;SDS011;42891;50.006;21.964;2022-10-22T14:32:23;49.80;;;27.52;;
56999;SDS011;42891;50.006;21.964;2022-10-22T14:36:23;150.50;;;76.50;;
56999;SDS011;42891;50.006;21.964;2022-10-22T14:40:23;188.18;;;91.50;;
56999;SDS011;42891;50.006;21.964;2022-10-22T14:44:24;75.32;;;41.15;;
56999;SDS011;42891;50.006;21.964;2022-10-22T14:48:24;113.88;;;60.38;;
56999;SDS011;42891;50.006;21.964;2022-10-22T14:52:24;139.85;;;65.28;;
56999;SDS011;42891;50.006;21.964;2022-10-22T14:56:25;130.17;;;61.37;;
56999;SDS011;42891;50.006;21.964;2022-10-22T15:00:25;63.23;;;40.53;;
56999;SDS011;42891;50.006;21.964;2022-10-22T15:04:25;42.72;;;28.88;;
56999;SDS011;42891;50.006;21.964;2022-10-22T15:08:27;50.80;;;33.05;;
56999;SDS011;42891;50.006;21.964;2022-10-22T15:12:27;44.97;;;28.90;;
56999;SDS011;42891;50.006;21.964;2022-10-22T15:16:27;58.00;;;34.40;;
56999;SDS011;42891;50.006;21.964;2022-10-22T15:20:27;57.05;;;34.83;;
56999;SDS011;42891;50.006;21.964;2022-10-22T15:24:28;77.20;;;49.28;;
56999;SDS011;42891;50.006;21.964;2022-10-22T15:28:28;96.00;;;58.67;;
56999;SDS011;42891;50.006;21.964;2022-10-22T15:32:29;140.60;;;78.05;;
56999;SDS011;42891;50.006;21.964;2022-10-22T15:36:31;67.43;;;43.92;;
56999;SDS011;42891;50.006;21.964;2022-10-22T15:40:31;62.00;;;39.75;;
56999;SDS011;42891;50.006;21.964;2022-10-22T15:44:31;64.70;;;39.70;;
56999;SDS011;42891;50.006;21.964;2022-10-22T15:48:32;58.10;;;42.67;;
56999;SDS011;42891;50.006;21.964;2022-10-22T15:52:32;57.30;;;38.40;;
56999;SDS011;42891;50.006;21.964;2022-10-22T15:56:32;54.80;;;37.30;;
56999;SDS011;42891;50.006;21.964;2022-10-22T16:00:33;44.80;;;31.17;;
56999;SDS011;42891;50.006;21.964;2022-10-22T16:04:33;46.63;;;32.47;;
56999;SDS011;42891;50.006;21.964;2022-10-22T16:08:33;48.15;;;31.88;;
56999;SDS011;42891;50.006;21.964;2022-10-22T16:12:34;42.00;;;28.00;;
56999;SDS011;42891;50.006;21.964;2022-10-22T16:16:35;47.63;;;31.40;;
56999;SDS011;42891;50.006;21.964;2022-10-22T16:20:38;57.60;;;33.70;;
56999;SDS011;42891;50.006;21.964;2022-10-22T16:24:39;63.13;;;37.10;;
56999;SDS011;42891;50.006;21.964;2022-10-22T16:28:40;58.28;;;37.42;;
56999;SDS011;42891;50.006;21.964;2022-10-22T16:32:41;65.68;;;36.13;;
56999;SDS011;42891;50.006;21.964;2022-10-22T16:36:41;113.27;;;59.70;;
56999;SDS011;42891;50.006;21.964;2022-10-22T16:40:43;113.72;;;70.00;;
56999;SDS011;42891;50.006;21.964;2022-10-22T16:44:44;94.20;;;53.95;;
56999;SDS011;42891;50.006;21.964;2022-10-22T16:48:49;53.90;;;34.83;;
56999;SDS011;42891;50.006;21.964;2022-10-22T16:56:51;50.97;;;32.85;;
56999;SDS011;42891;50.006;21.964;2022-10-22T17:00:51;41.37;;;26.93;;
56999;SDS011;42891;50.006;21.964;2022-10-22T17:04:51;48.57;;;30.43;;
56999;SDS011;42891;50.006;21.964;2022-10-22T17:08:51;47.40;;;32.87;;
56999;SDS011;42891;50.006;21.964;2022-10-22T17:12:52;50.25;;;33.92;;
56999;SDS011;42891;50.006;21.964;2022-10-22T17:16:52;51.00;;;31.30;;
56999;SDS011;42891;50.006;21.964;2022-10-22T17:20:53;52.53;;;35.00;;
56999;SDS011;42891;50.006;21.964;2022-10-22T17:29:14;55.78;;;35.22;;
56999;SDS011;42891;50.006;21.964;2022-10-22T17:33:15;56.92;;;35.22;;
56999;SDS011;42891;50.006;21.964;2022-10-22T17:37:15;38.57;;;26.87;;
56999;SDS011;42891;50.006;21.964;2022-10-22T17:41:17;43.43;;;28.60;;
56999;SDS011;42891;50.006;21.964;2022-10-22T17:45:19;41.35;;;26.23;;
56999;SDS011;42891;50.006;21.964;2022-10-22T17:49:19;41.55;;;26.55;;
56999;SDS011;42891;50.006;21.964;2022-10-22T17:53:20;37.33;;;25.10;;
56999;SDS011;42891;50.006;21.964;2022-10-22T17:57:20;35.90;;;25.63;;
56999;SDS011;42891;50.006;21.964;2022-10-22T18:05:28;37.20;;;24.70;;
56999;SDS011;42891;50.006;21.964;2022-10-22T18:09:28;39.25;;;25.98;;
56999;SDS011;42891;50.006;21.964;2022-10-22T18:13:29;34.53;;;23.35;;
56999;SDS011;42891;50.006;21.964;2022-10-22T18:17:29;32.27;;;21.83;;
56999;SDS011;42891;50.006;21.964;2022-10-22T18:21:29;34.70;;;24.07;;
56999;SDS011;42891;50.006;21.964;2022-10-22T18:25:30;36.90;;;23.17;;
56999;SDS011;42891;50.006;21.964;2022-10-22T18:29:30;38.63;;;25.00;;
56999;SDS011;42891;50.006;21.964;2022-10-22T18:33:31;41.53;;;25.40;;
56999;SDS011;42891;50.006;21.964;2022-10-22T18:37:31;41.65;;;25.58;;
56999;SDS011;42891;50.006;21.964;2022-10-22T18:41:34;33.33;;;22.52;;
56999;SDS011;42891;50.006;21.964;2022-10-22T18:45:39;36.50;;;23.88;;
56999;SDS011;42891;50.006;21.964;2022-10-22T18:49:40;32.97;;;23.20;;
56999;SDS011;42891;50.006;21.964;2022-10-22T18:53:40;36.58;;;25.05;;
56999;SDS011;42891;50.006;21.964;2022-10-22T18:57:41;33.80;;;22.73;;
56999;SDS011;42891;50.006;21.964;2022-10-22T19:01:41;34.17;;;23.80;;
56999;SDS011;42891;50.006;21.964;2022-10-22T19:05:46;33.77;;;24.30;;
56999;SDS011;42891;50.006;21.964;2022-10-22T19:09:47;31.50;;;22.70;;
56999;SDS011;42891;50.006;21.964;2022-10-22T19:13:48;40.10;;;26.60;;
56999;SDS011;42891;50.006;21.964;2022-10-22T19:17:49;36.80;;;24.50;;
56999;SDS011;42891;50.006;21.964;2022-10-22T19:21:49;37.97;;;25.73;;
56999;SDS011;42891;50.006;21.964;2022-10-22T19:26:00;35.95;;;25.40;;
56999;SDS011;42891;50.006;21.964;2022-10-22T19:30:02;33.53;;;23.05;;
56999;SDS011;42891;50.006;21.964;2022-10-22T19:34:03;33.95;;;22.63;;
56999;SDS011;42891;50.006;21.964;2022-10-22T19:38:04;34.67;;;23.40;;
56999;SDS011;42891;50.006;21.964;2022-10-22T19:42:04;35.73;;;24.50;;
56999;SDS011;42891;50.006;21.964;2022-10-22T19:46:05;33.67;;;22.60;;
56999;SDS011;42891;50.006;21.964;2022-10-22T19:50:05;33.42;;;22.30;;
56999;SDS011;42891;50.006;21.964;2022-10-22T19:54:07;32.42;;;22.58;;
56999;SDS011;42891;50.006;21.964;2022-10-22T19:58:10;28.40;;;20.75;;
56999;SDS011;42891;50.006;21.964;2022-10-22T20:02:15;28.10;;;20.17;;
56999;SDS011;42891;50.006;21.964;2022-10-22T20:06:17;31.63;;;21.85;;
56999;SDS011;42891;50.006;21.964;2022-10-22T20:10:18;29.52;;;20.30;;
56999;SDS011;42891;50.006;21.964;2022-10-22T20:14:18;28.92;;;20.10;;
56999;SDS011;42891;50.006;21.964;2022-10-22T20:18:19;29.73;;;21.60;;
56999;SDS011;42891;50.006;21.964;2022-10-22T20:22:21;27.85;;;20.42;;
56999;SDS011;42891;50.006;21.964;2022-10-22T20:26:21;26.23;;;19.97;;
56999;SDS011;42891;50.006;21.964;2022-10-22T20:30:23;25.88;;;19.27;;
56999;SDS011;42891;50.006;21.964;2022-10-22T20:34:23;27.02;;;19.80;;
56999;SDS011;42891;50.006;21.964;2022-10-22T20:38:24;27.57;;;20.30;;
56999;SDS011;42891;50.006;21.964;2022-10-22T20:42:24;28.70;;;20.20;;
56999;SDS011;42891;50.006;21.964;2022-10-22T20:46:28;24.77;;;19.27;;
56999;SDS011;42891;50.006;21.964;2022-10-22T20:50:30;27.80;;;20.50;;
56999;SDS011;42891;50.006;21.964;2022-10-22T20:54:31;30.20;;;22.15;;
56999;SDS011;42891;50.006;21.964;2022-10-22T20:58:31;30.40;;;21.10;;
56999;SDS011;42891;50.006;21.964;2022-10-22T21:02:32;30.30;;;21.02;;
56999;SDS011;42891;50.006;21.964;2022-10-22T21:06:33;29.45;;;20.65;;
56999;SDS011;42891;50.006;21.964;2022-10-22T21:10:37;28.20;;;20.45;;
56999;SDS011;42891;50.006;21.964;2022-10-22T21:14:37;31.83;;;21.60;;
56999;SDS011;42891;50.006;21.964;2022-10-22T21:18:37;29.77;;;21.33;;
56999;SDS011;42891;50.006;21.964;2022-10-22T21:22:37;28.85;;;21.52;;
56999;SDS011;42891;50.006;21.964;2022-10-22T21:26:38;30.73;;;21.50;;
56999;SDS011;42891;50.006;21.964;2022-10-22T21:30:43;25.23;;;19.20;;
56999;SDS011;42891;50.006;21.964;2022-10-22T21:34:44;26.58;;;18.92;;
56999;SDS011;42891;50.006;21.964;2022-10-22T21:38:45;29.05;;;19.25;;
56999;SDS011;42891;50.006;21.964;2022-10-22T21:42:45;30.70;;;21.38;;
56999;SDS011;42891;50.006;21.964;2022-10-22T21:46:45;27.27;;;19.73;;
56999;SDS011;42891;50.006;21.964;2022-10-22T21:50:46;28.03;;;19.87;;
56999;SDS011;42891;50.006;21.964;2022-10-22T21:54:46;24.20;;;18.33;;
56999;SDS011;42891;50.006;21.964;2022-10-22T21:58:46;24.55;;;18.17;;
56999;SDS011;42891;50.006;21.964;2022-10-22T22:02:46;27.27;;;18.63;;
56999;SDS011;42891;50.006;21.964;2022-10-22T22:06:47;25.17;;;17.40;;
56999;SDS011;42891;50.006;21.964;2022-10-22T22:10:47;21.57;;;17.83;;
56999;SDS011;42891;50.006;21.964;2022-10-22T22:14:47;23.93;;;17.73;;
56999;SDS011;42891;50.006;21.964;2022-10-22T22:18:47;23.30;;;17.73;;
56999;SDS011;42891;50.006;21.964;2022-10-22T22:22:48;22.15;;;16.90;;
56999;SDS011;42891;50.006;21.964;2022-10-22T22:26:48;26.97;;;19.07;;
56999;SDS011;42891;50.006;21.964;2022-10-22T22:30:48;29.27;;;20.43;;
56999;SDS011;42891;50.006;21.964;2022-10-22T22:34:49;36.47;;;23.87;;
56999;SDS011;42891;50.006;21.964;2022-10-22T22:38:52;42.58;;;28.10;;
56999;SDS011;42891;50.006;21.964;2022-10-22T22:42:53;50.97;;;31.20;;
56999;SDS011;42891;50.006;21.964;2022-10-22T22:46:54;53.85;;;32.05;;
56999;SDS011;42891;50.006;21.964;2022-10-22T22:50:54;53.20;;;31.60;;
56999;SDS011;42891;50.006;21.964;2022-10-22T22:54:54;58.33;;;32.67;;
56999;SDS011;42891;50.006;21.964;2022-10-22T22:58:56;52.17;;;31.70;;
56999;SDS011;42891;50.006;21.964;2022-10-22T23:02:57;52.13;;;30.75;;
56999;SDS011;42891;50.006;21.964;2022-10-22T23:06:57;44.60;;;28.67;;
56999;SDS011;42891;50.006;21.964;2022-10-22T23:11:01;40.78;;;26.10;;
56999;SDS011;42891;50.006;21.964;2022-10-22T23:15:07;35.58;;;22.95;;
56999;SDS011;42891;50.006;21.964;2022-10-22T23:19:07;34.65;;;23.25;;
56999;SDS011;42891;50.006;21.964;2022-10-22T23:23:07;37.53;;;22.77;;
56999;SDS011;42891;50.006;21.964;2022-10-22T23:27:08;37.23;;;24.17;;
56999;SDS011;42891;50.006;21.964;2022-10-22T23:31:12;39.50;;;26.08;;
56999;SDS011;42891;50.006;21.964;2022-10-22T23:35:14;48.87;;;27.63;;
56999;SDS011;42891;50.006;21.964;2022-10-22T23:39:15;48.20;;;27.60;;
56999;SDS011;42891;50.006;21.964;2022-10-22T23:43:17;46.60;;;28.35;;
56999;SDS011;42891;50.006;21.964;2022-10-22T23:47:17;53.77;;;31.07;;
56999;SDS011;42891;50.006;21.964;2022-10-22T23:51:18;52.60;;;30.40;;
56999;SDS011;42891;50.006;21.964;2022-10-22T23:55:19;54.40;;;30.05;;
56999;SDS011;42891;50.006;21.964;2022-10-22T23:59:19;60.73;;;33.17;;
